sensor_id;sensor_type;location;lat;lon;timestamp;pressure;altitude;pressure_sealevel;temperature
72035;BMP280;59899;43.412;23.216;2022-07-17T00:00:39;100258.19;;;20.49
72035;BMP280;59899;43.412;23.216;2022-07-17T00:03:14;100271.41;;;20.47
72035;BMP280;59899;43.412;23.216;2022-07-17T00:05:41;100270.38;;;20.45
72035;BMP280;59899;43.412;23.216;2022-07-17T00:08:07;100265.22;;;20.41
72035;BMP280;59899;43.412;23.216;2022-07-17T00:10:37;100273.75;;;20.40
72035;BMP280;59899;43.412;23.216;2022-07-17T00:13:03;100266.38;;;20.35
72035;BMP280;59899;43.412;23.216;2022-07-17T00:15:29;100270.75;;;20.32
72035;BMP280;59899;43.412;23.216;2022-07-17T00:17:55;100278.28;;;20.28
72035;BMP280;59899;43.412;23.216;2022-07-17T00:20:20;100283.13;;;20.24
72035;BMP280;59899;43.412;23.216;2022-07-17T00:22:46;100277.66;;;20.19
72035;BMP280;59899;43.412;23.216;2022-07-17T00:25:12;100286.44;;;20.14
72035;BMP280;59899;43.412;23.216;2022-07-17T00:27:38;100284.44;;;20.09
72035;BMP280;59899;43.412;23.216;2022-07-17T00:30:04;100285.63;;;20.08
72035;BMP280;59899;43.412;23.216;2022-07-17T00:32:30;100283.84;;;20.04
72035;BMP280;59899;43.412;23.216;2022-07-17T00:34:56;100291.41;;;20.00
72035;BMP280;59899;43.412;23.216;2022-07-17T00:37:21;100284.78;;;20.01
72035;BMP280;59899;43.412;23.216;2022-07-17T00:39:47;100283.03;;;19.98
72035;BMP280;59899;43.412;23.216;2022-07-17T00:42:13;100299.19;;;19.98
72035;BMP280;59899;43.412;23.216;2022-07-17T00:44:39;100288.16;;;19.96
72035;BMP280;59899;43.412;23.216;2022-07-17T00:47:19;100282.72;;;19.91
72035;BMP280;59899;43.412;23.216;2022-07-17T00:49:48;100287.88;;;19.94
72035;BMP280;59899;43.412;23.216;2022-07-17T00:52:16;100296.41;;;19.93
72035;BMP280;59899;43.412;23.216;2022-07-17T00:54:44;100293.94;;;19.89
72035;BMP280;59899;43.412;23.216;2022-07-17T00:57:12;100302.38;;;19.82
72035;BMP280;59899;43.412;23.216;2022-07-17T00:59:39;100311.50;;;19.85
72035;BMP280;59899;43.412;23.216;2022-07-17T01:02:06;100303.50;;;19.76
72035;BMP280;59899;43.412;23.216;2022-07-17T01:04:32;100308.16;;;19.75
72035;BMP280;59899;43.412;23.216;2022-07-17T01:06:59;100307.44;;;19.75
72035;BMP280;59899;43.412;23.216;2022-07-17T01:09:26;100301.31;;;19.74
72035;BMP280;59899;43.412;23.216;2022-07-17T01:11:52;100304.47;;;19.73
72035;BMP280;59899;43.412;23.216;2022-07-17T01:14:17;100302.72;;;19.70
72035;BMP280;59899;43.412;23.216;2022-07-17T01:16:43;100305.13;;;19.68
72035;BMP280;59899;43.412;23.216;2022-07-17T01:19:10;100307.06;;;19.67
72035;BMP280;59899;43.412;23.216;2022-07-17T01:21:41;100306.88;;;19.71
72035;BMP280;59899;43.412;23.216;2022-07-17T01:24:06;100300.75;;;19.70
72035;BMP280;59899;43.412;23.216;2022-07-17T01:26:32;100300.75;;;19.70
72035;BMP280;59899;43.412;23.216;2022-07-17T01:28:57;100309.50;;;19.65
72035;BMP280;59899;43.412;23.216;2022-07-17T01:31:23;100307.25;;;19.63
72035;BMP280;59899;43.412;23.216;2022-07-17T01:33:49;100310.16;;;19.60
72035;BMP280;59899;43.412;23.216;2022-07-17T01:36:14;100310.03;;;19.54
72035;BMP280;59899;43.412;23.216;2022-07-17T01:38:40;100314.66;;;19.54
72035;BMP280;59899;43.412;23.216;2022-07-17T01:41:06;100307.84;;;19.53
72035;BMP280;59899;43.412;23.216;2022-07-17T01:43:31;100310.22;;;19.51
72035;BMP280;59899;43.412;23.216;2022-07-17T01:45:56;100319.59;;;19.41
72035;BMP280;59899;43.412;23.216;2022-07-17T01:48:24;100315.91;;;19.38
72035;BMP280;59899;43.412;23.216;2022-07-17T01:50:49;100321.28;;;19.38
72035;BMP280;59899;43.412;23.216;2022-07-17T01:53:15;100309.50;;;19.36
72035;BMP280;59899;43.412;23.216;2022-07-17T01:55:40;100318.31;;;19.36
72035;BMP280;59899;43.412;23.216;2022-07-17T01:58:06;100307.72;;;19.33
72035;BMP280;59899;43.412;23.216;2022-07-17T02:00:31;100312.84;;;19.31
72035;BMP280;59899;43.412;23.216;2022-07-17T02:02:57;100305.97;;;19.30
72035;BMP280;59899;43.412;23.216;2022-07-17T02:05:22;100313.75;;;19.28
72035;BMP280;59899;43.412;23.216;2022-07-17T02:07:47;100314.50;;;19.28
72035;BMP280;59899;43.412;23.216;2022-07-17T02:10:13;100314.25;;;19.26
72035;BMP280;59899;43.412;23.216;2022-07-17T02:12:44;100309.50;;;19.21
72035;BMP280;59899;43.412;23.216;2022-07-17T02:15:11;100305.53;;;19.16
72035;BMP280;59899;43.412;23.216;2022-07-17T02:17:38;100305.25;;;19.14
72035;BMP280;59899;43.412;23.216;2022-07-17T02:20:04;100304.03;;;19.15
72035;BMP280;59899;43.412;23.216;2022-07-17T02:22:30;100309.88;;;19.14
72035;BMP280;59899;43.412;23.216;2022-07-17T02:24:55;100308.56;;;19.09
72035;BMP280;59899;43.412;23.216;2022-07-17T02:27:21;100311.97;;;19.10
72035;BMP280;59899;43.412;23.216;2022-07-17T02:29:46;100304.22;;;19.12
72035;BMP280;59899;43.412;23.216;2022-07-17T02:32:12;100313.78;;;19.13
72035;BMP280;59899;43.412;23.216;2022-07-17T02:34:37;100306.00;;;19.15
72035;BMP280;59899;43.412;23.216;2022-07-17T02:37:02;100310.78;;;19.11
72035;BMP280;59899;43.412;23.216;2022-07-17T02:39:28;100309.47;;;19.06
72035;BMP280;59899;43.412;23.216;2022-07-17T02:41:53;100313.91;;;19.09
72035;BMP280;59899;43.412;23.216;2022-07-17T02:44:19;100313.66;;;19.07
72035;BMP280;59899;43.412;23.216;2022-07-17T02:46:44;100308.56;;;19.09
72035;BMP280;59899;43.412;23.216;2022-07-17T02:49:09;100314.66;;;19.10
72035;BMP280;59899;43.412;23.216;2022-07-17T02:51:35;100323.22;;;19.08
72035;BMP280;59899;43.412;23.216;2022-07-17T02:54:01;100311.34;;;19.00
72035;BMP280;59899;43.412;23.216;2022-07-17T02:56:26;100323.75;;;18.98
72035;BMP280;59899;43.412;23.216;2022-07-17T02:58:51;100320.28;;;18.83
72035;BMP280;59899;43.412;23.216;2022-07-17T03:01:17;100327.13;;;18.84
72035;BMP280;59899;43.412;23.216;2022-07-17T03:03:42;100324.25;;;18.87
72035;BMP280;59899;43.412;23.216;2022-07-17T03:06:08;100325.75;;;18.88
72035;BMP280;59899;43.412;23.216;2022-07-17T03:08:33;100328.03;;;18.90
72035;BMP280;59899;43.412;23.216;2022-07-17T03:10:59;100325.59;;;18.92
72035;BMP280;59899;43.412;23.216;2022-07-17T03:13:24;100336.06;;;18.90
72035;BMP280;59899;43.412;23.216;2022-07-17T03:15:50;100330.72;;;18.90
72035;BMP280;59899;43.412;23.216;2022-07-17T03:18:15;100341.44;;;18.90
72035;BMP280;59899;43.412;23.216;2022-07-17T03:20:41;100333.66;;;18.92
72035;BMP280;59899;43.412;23.216;2022-07-17T03:23:06;100336.91;;;18.96
72035;BMP280;59899;43.412;23.216;2022-07-17T03:25:31;100334.97;;;18.96
72035;BMP280;59899;43.412;23.216;2022-07-17T03:27:57;100329.59;;;18.96
72035;BMP280;59899;43.412;23.216;2022-07-17T03:30:22;100332.28;;;18.96
72035;BMP280;59899;43.412;23.216;2022-07-17T03:32:48;100340.81;;;18.95
72035;BMP280;59899;43.412;23.216;2022-07-17T03:35:13;100339.13;;;18.97
72035;BMP280;59899;43.412;23.216;2022-07-17T03:37:39;100343.31;;;18.98
72035;BMP280;59899;43.412;23.216;2022-07-17T03:40:06;100349.88;;;18.97
72035;BMP280;59899;43.412;23.216;2022-07-17T03:42:32;100346.00;;;18.98
72035;BMP280;59899;43.412;23.216;2022-07-17T03:44:57;100351.06;;;18.96
72035;BMP280;59899;43.412;23.216;2022-07-17T03:47:22;100354.88;;;19.04
72035;BMP280;59899;43.412;23.216;2022-07-17T03:49:48;100359.06;;;19.05
72035;BMP280;59899;43.412;23.216;2022-07-17T03:52:13;100360.84;;;19.08
72035;BMP280;59899;43.412;23.216;2022-07-17T03:54:39;100360.66;;;19.12
72035;BMP280;59899;43.412;23.216;2022-07-17T03:57:04;100359.00;;;19.14
72035;BMP280;59899;43.412;23.216;2022-07-17T03:59:29;100355.38;;;19.17
72035;BMP280;59899;43.412;23.216;2022-07-17T04:01:55;100360.84;;;19.23
72035;BMP280;59899;43.412;23.216;2022-07-17T04:04:21;100358.25;;;19.29
72035;BMP280;59899;43.412;23.216;2022-07-17T04:06:46;100354.19;;;19.33
72035;BMP280;59899;43.412;23.216;2022-07-17T04:09:12;100361.72;;;19.44
72035;BMP280;59899;43.412;23.216;2022-07-17T04:11:37;100364.56;;;19.55
72035;BMP280;59899;43.412;23.216;2022-07-17T04:14:03;100360.41;;;19.69
72035;BMP280;59899;43.412;23.216;2022-07-17T04:16:28;100366.69;;;19.80
72035;BMP280;59899;43.412;23.216;2022-07-17T04:18:54;100377.91;;;19.93
72035;BMP280;59899;43.412;23.216;2022-07-17T04:21:19;100370.28;;;20.07
72035;BMP280;59899;43.412;23.216;2022-07-17T04:23:45;100379.22;;;20.18
72035;BMP280;59899;43.412;23.216;2022-07-17T04:26:10;100378.94;;;20.31
72035;BMP280;59899;43.412;23.216;2022-07-17T04:28:36;100376.38;;;20.42
72035;BMP280;59899;43.412;23.216;2022-07-17T04:31:02;100371.78;;;20.48
72035;BMP280;59899;43.412;23.216;2022-07-17T04:33:27;100380.03;;;20.59
72035;BMP280;59899;43.412;23.216;2022-07-17T04:35:53;100377.44;;;20.70
72035;BMP280;59899;43.412;23.216;2022-07-17T04:38:18;100370.72;;;20.80
72035;BMP280;59899;43.412;23.216;2022-07-17T04:40:43;100374.72;;;20.90
72035;BMP280;59899;43.412;23.216;2022-07-17T04:43:09;100376.09;;;21.01
72035;BMP280;59899;43.412;23.216;2022-07-17T04:45:34;100383.53;;;21.11
72035;BMP280;59899;43.412;23.216;2022-07-17T04:48:00;100381.66;;;21.23
72035;BMP280;59899;43.412;23.216;2022-07-17T04:50:26;100379.09;;;21.34
72035;BMP280;59899;43.412;23.216;2022-07-17T04:52:52;100383.09;;;21.44
72035;BMP280;59899;43.412;23.216;2022-07-17T04:55:17;100395.94;;;21.55
72035;BMP280;59899;43.412;23.216;2022-07-17T04:57:43;100392.09;;;21.67
72035;BMP280;59899;43.412;23.216;2022-07-17T05:00:10;100387.78;;;21.81
72035;BMP280;59899;43.412;23.216;2022-07-17T05:02:35;100397.72;;;21.95
72035;BMP280;59899;43.412;23.216;2022-07-17T05:05:01;100388.44;;;22.07
72035;BMP280;59899;43.412;23.216;2022-07-17T05:07:27;100402.28;;;22.20
72035;BMP280;59899;43.412;23.216;2022-07-17T05:09:53;100402.31;;;22.31
72035;BMP280;59899;43.412;23.216;2022-07-17T05:12:18;100406.81;;;22.45
72035;BMP280;59899;43.412;23.216;2022-07-17T05:14:43;100393.59;;;22.58
72035;BMP280;59899;43.412;23.216;2022-07-17T05:17:09;100394.63;;;22.72
72035;BMP280;59899;43.412;23.216;2022-07-17T05:19:34;100391.69;;;22.87
72035;BMP280;59899;43.412;23.216;2022-07-17T05:22:01;100394.19;;;23.01
72035;BMP280;59899;43.412;23.216;2022-07-17T05:24:26;100403.06;;;23.19
72035;BMP280;59899;43.412;23.216;2022-07-17T05:26:52;100399.16;;;23.36
72035;BMP280;59899;43.412;23.216;2022-07-17T05:29:17;100403.31;;;23.54
72035;BMP280;59899;43.412;23.216;2022-07-17T05:31:43;100400.34;;;23.69
72035;BMP280;59899;43.412;23.216;2022-07-17T05:34:08;100401.06;;;23.86
72035;BMP280;59899;43.412;23.216;2022-07-17T05:36:33;100402.72;;;24.05
72035;BMP280;59899;43.412;23.216;2022-07-17T05:38:59;100399.94;;;24.28
72035;BMP280;59899;43.412;23.216;2022-07-17T05:41:24;100393.69;;;24.44
72035;BMP280;59899;43.412;23.216;2022-07-17T05:43:50;100402.22;;;24.65
72035;BMP280;59899;43.412;23.216;2022-07-17T05:46:15;100402.59;;;24.85
72035;BMP280;59899;43.412;23.216;2022-07-17T05:48:41;100402.19;;;25.06
72035;BMP280;59899;43.412;23.216;2022-07-17T05:51:06;100400.06;;;25.23
72035;BMP280;59899;43.412;23.216;2022-07-17T05:53:32;100398.41;;;25.44
72035;BMP280;59899;43.412;23.216;2022-07-17T05:55:57;100412.28;;;25.65
72035;BMP280;59899;43.412;23.216;2022-07-17T05:58:22;100402.94;;;25.84
72035;BMP280;59899;43.412;23.216;2022-07-17T06:00:48;100396.94;;;26.10
72035;BMP280;59899;43.412;23.216;2022-07-17T06:03:17;100399.63;;;26.34
72035;BMP280;59899;43.412;23.216;2022-07-17T06:05:42;100401.06;;;26.54
72035;BMP280;59899;43.412;23.216;2022-07-17T06:08:08;100393.72;;;26.81
72035;BMP280;59899;43.412;23.216;2022-07-17T06:10:34;100402.19;;;26.96
72035;BMP280;59899;43.412;23.216;2022-07-17T06:12:59;100405.63;;;27.10
72035;BMP280;59899;43.412;23.216;2022-07-17T06:15:25;100409.97;;;27.18
72035;BMP280;59899;43.412;23.216;2022-07-17T06:17:51;100405.06;;;27.30
72035;BMP280;59899;43.412;23.216;2022-07-17T06:20:17;100412.94;;;27.47
72035;BMP280;59899;43.412;23.216;2022-07-17T06:22:43;100409.38;;;27.65
72035;BMP280;59899;43.412;23.216;2022-07-17T06:25:09;100411.34;;;27.90
72035;BMP280;59899;43.412;23.216;2022-07-17T06:27:38;100409.13;;;28.02
72035;BMP280;59899;43.412;23.216;2022-07-17T06:30:04;100408.88;;;28.13
72035;BMP280;59899;43.412;23.216;2022-07-17T06:32:30;100406.56;;;28.17
72035;BMP280;59899;43.412;23.216;2022-07-17T06:34:55;100410.09;;;28.25
72035;BMP280;59899;43.412;23.216;2022-07-17T06:37:21;100404.75;;;28.33
72035;BMP280;59899;43.412;23.216;2022-07-17T06:39:46;100409.06;;;28.49
72035;BMP280;59899;43.412;23.216;2022-07-17T06:42:12;100410.44;;;28.56
72035;BMP280;59899;43.412;23.216;2022-07-17T06:44:37;100412.28;;;28.61
72035;BMP280;59899;43.412;23.216;2022-07-17T06:47:02;100398.16;;;28.70
72035;BMP280;59899;43.412;23.216;2022-07-17T06:49:28;100399.28;;;28.74
72035;BMP280;59899;43.412;23.216;2022-07-17T06:51:53;100406.31;;;28.83
72035;BMP280;59899;43.412;23.216;2022-07-17T06:54:19;100404.56;;;28.93
72035;BMP280;59899;43.412;23.216;2022-07-17T06:56:44;100403.84;;;29.00
72035;BMP280;59899;43.412;23.216;2022-07-17T06:59:10;100397.41;;;29.11
72035;BMP280;59899;43.412;23.216;2022-07-17T07:01:38;100397.44;;;29.18
72035;BMP280;59899;43.412;23.216;2022-07-17T07:04:04;100403.34;;;29.30
72035;BMP280;59899;43.412;23.216;2022-07-17T07:06:30;100403.78;;;29.41
72035;BMP280;59899;43.412;23.216;2022-07-17T07:08:55;100409.50;;;29.59
72035;BMP280;59899;43.412;23.216;2022-07-17T07:11:21;100413.88;;;29.62
72035;BMP280;59899;43.412;23.216;2022-07-17T07:13:47;100408.69;;;29.71
72035;BMP280;59899;43.412;23.216;2022-07-17T07:16:12;100411.81;;;29.90
72035;BMP280;59899;43.412;23.216;2022-07-17T07:18:38;100410.97;;;30.03
72035;BMP280;59899;43.412;23.216;2022-07-17T07:21:03;100423.56;;;30.06
72035;BMP280;59899;43.412;23.216;2022-07-17T07:23:28;100419.41;;;30.20
72035;BMP280;59899;43.412;23.216;2022-07-17T07:25:54;100413.94;;;30.20
72035;BMP280;59899;43.412;23.216;2022-07-17T07:28:19;100419.03;;;30.31
72035;BMP280;59899;43.412;23.216;2022-07-17T07:30:45;100415.22;;;30.34
72035;BMP280;59899;43.412;23.216;2022-07-17T07:33:10;100416.16;;;30.44
72035;BMP280;59899;43.412;23.216;2022-07-17T07:35:36;100416.69;;;30.51
72035;BMP280;59899;43.412;23.216;2022-07-17T07:38:02;100424.91;;;30.51
72035;BMP280;59899;43.412;23.216;2022-07-17T07:40:28;100420.31;;;30.61
72035;BMP280;59899;43.412;23.216;2022-07-17T07:42:53;100409.03;;;30.72
72035;BMP280;59899;43.412;23.216;2022-07-17T07:45:19;100421.81;;;30.62
72035;BMP280;59899;43.412;23.216;2022-07-17T07:47:48;100417.97;;;30.49
72035;BMP280;59899;43.412;23.216;2022-07-17T07:50:16;100422.91;;;30.66
72035;BMP280;59899;43.412;23.216;2022-07-17T07:52:41;100424.53;;;30.84
72035;BMP280;59899;43.412;23.216;2022-07-17T07:55:08;100414.50;;;30.94
72035;BMP280;59899;43.412;23.216;2022-07-17T07:57:36;100404.81;;;30.86
72035;BMP280;59899;43.412;23.216;2022-07-17T08:00:04;100416.09;;;31.05
72035;BMP280;59899;43.412;23.216;2022-07-17T08:02:30;100417.13;;;31.32
72035;BMP280;59899;43.412;23.216;2022-07-17T08:04:55;100417.16;;;31.40
72035;BMP280;59899;43.412;23.216;2022-07-17T08:07:21;100416.34;;;31.54
72035;BMP280;59899;43.412;23.216;2022-07-17T08:09:46;100416.88;;;31.61
72035;BMP280;59899;43.412;23.216;2022-07-17T08:12:11;100419.03;;;31.70
72035;BMP280;59899;43.412;23.216;2022-07-17T08:14:37;100415.50;;;31.77
72035;BMP280;59899;43.412;23.216;2022-07-17T08:17:02;100413.41;;;31.92
72035;BMP280;59899;43.412;23.216;2022-07-17T08:19:27;100410.97;;;32.04
72035;BMP280;59899;43.412;23.216;2022-07-17T08:21:53;100409.19;;;32.24
72035;BMP280;59899;43.412;23.216;2022-07-17T08:24:18;100419.75;;;32.27
72035;BMP280;59899;43.412;23.216;2022-07-17T08:26:44;100411.44;;;32.18
72035;BMP280;59899;43.412;23.216;2022-07-17T08:29:09;100410.94;;;32.36
72035;BMP280;59899;43.412;23.216;2022-07-17T08:31:35;100411.16;;;32.31
72035;BMP280;59899;43.412;23.216;2022-07-17T08:34:00;100402.88;;;32.13
72035;BMP280;59899;43.412;23.216;2022-07-17T08:36:26;100413.34;;;32.32
72035;BMP280;59899;43.412;23.216;2022-07-17T08:38:52;100403.81;;;32.33
72035;BMP280;59899;43.412;23.216;2022-07-17T08:41:17;100401.56;;;31.90
72035;BMP280;59899;43.412;23.216;2022-07-17T08:43:47;100412.66;;;31.99
72035;BMP280;59899;43.412;23.216;2022-07-17T08:46:14;100404.72;;;32.11
72035;BMP280;59899;43.412;23.216;2022-07-17T08:48:45;100424.31;;;32.32
72035;BMP280;59899;43.412;23.216;2022-07-17T08:51:11;100410.72;;;32.42
72035;BMP280;59899;43.412;23.216;2022-07-17T08:53:37;100416.13;;;32.49
72035;BMP280;59899;43.412;23.216;2022-07-17T08:56:03;100410.78;;;32.51
72035;BMP280;59899;43.412;23.216;2022-07-17T08:58:29;100410.13;;;32.43
72035;BMP280;59899;43.412;23.216;2022-07-17T09:00:55;100410.94;;;32.36
72035;BMP280;59899;43.412;23.216;2022-07-17T09:03:20;100410.63;;;32.49
72035;BMP280;59899;43.412;23.216;2022-07-17T09:05:49;100404.94;;;32.72
72035;BMP280;59899;43.412;23.216;2022-07-17T09:08:22;100410.38;;;32.80
72035;BMP280;59899;43.412;23.216;2022-07-17T09:10:51;100407.28;;;32.93
72035;BMP280;59899;43.412;23.216;2022-07-17T09:13:26;100403.94;;;33.02
72035;BMP280;59899;43.412;23.216;2022-07-17T09:16:12;100406.00;;;33.28
72035;BMP280;59899;43.412;23.216;2022-07-17T09:21:17;100404.56;;;33.27
72035;BMP280;59899;43.412;23.216;2022-07-17T09:23:42;100399.44;;;33.41
72035;BMP280;59899;43.412;23.216;2022-07-17T09:26:08;100395.69;;;33.46
72035;BMP280;59899;43.412;23.216;2022-07-17T09:28:44;100403.47;;;33.40
72035;BMP280;59899;43.412;23.216;2022-07-17T09:31:10;100405.16;;;33.52
72035;BMP280;59899;43.412;23.216;2022-07-17T09:33:36;100405.31;;;33.54
72035;BMP280;59899;43.412;23.216;2022-07-17T09:36:09;100402.69;;;33.12
72035;BMP280;59899;43.412;23.216;2022-07-17T09:38:39;100408.66;;;33.18
72035;BMP280;59899;43.412;23.216;2022-07-17T09:41:05;100395.44;;;33.07
72035;BMP280;59899;43.412;23.216;2022-07-17T09:46:23;100408.69;;;33.45
72035;BMP280;59899;43.412;23.216;2022-07-17T09:48:58;100400.88;;;33.68
72035;BMP280;59899;43.412;23.216;2022-07-17T09:51:29;100407.31;;;33.80
72035;BMP280;59899;43.412;23.216;2022-07-17T09:53:58;100390.53;;;33.76
72035;BMP280;59899;43.412;23.216;2022-07-17T09:56:26;100402.13;;;33.85
72035;BMP280;59899;43.412;23.216;2022-07-17T09:58:55;100394.47;;;33.93
72035;BMP280;59899;43.412;23.216;2022-07-17T10:01:22;100398.00;;;34.03
72035;BMP280;59899;43.412;23.216;2022-07-17T10:03:48;100401.13;;;33.90
72035;BMP280;59899;43.412;23.216;2022-07-17T10:06:19;100398.72;;;33.94
72035;BMP280;59899;43.412;23.216;2022-07-17T10:08:46;100388.06;;;33.80
72035;BMP280;59899;43.412;23.216;2022-07-17T10:11:13;100387.22;;;33.88
72035;BMP280;59899;43.412;23.216;2022-07-17T10:13:42;100391.19;;;33.94
72035;BMP280;59899;43.412;23.216;2022-07-17T10:16:09;100393.69;;;34.09
72035;BMP280;59899;43.412;23.216;2022-07-17T10:21:15;100388.81;;;34.36
72035;BMP280;59899;43.412;23.216;2022-07-17T10:23:42;100399.72;;;34.44
72035;BMP280;59899;43.412;23.216;2022-07-17T10:26:09;100395.50;;;34.53
72035;BMP280;59899;43.412;23.216;2022-07-17T10:28:46;100385.81;;;34.71
72035;BMP280;59899;43.412;23.216;2022-07-17T10:31:25;100393.47;;;34.44
72035;BMP280;59899;43.412;23.216;2022-07-17T10:33:59;100389.69;;;34.29
72035;BMP280;59899;43.412;23.216;2022-07-17T10:36:39;100384.00;;;34.18
72035;BMP280;59899;43.412;23.216;2022-07-17T10:41:38;100383.31;;;34.17
72035;BMP280;59899;43.412;23.216;2022-07-17T10:44:03;100374.47;;;34.28
72035;BMP280;59899;43.412;23.216;2022-07-17T10:46:29;100372.47;;;34.48
72035;BMP280;59899;43.412;23.216;2022-07-17T10:48:56;100380.59;;;34.46
72035;BMP280;59899;43.412;23.216;2022-07-17T10:51:24;100382.66;;;34.09
72035;BMP280;59899;43.412;23.216;2022-07-17T10:53:50;100375.91;;;34.20
72035;BMP280;59899;43.412;23.216;2022-07-17T10:56:15;100368.44;;;33.94
72035;BMP280;59899;43.412;23.216;2022-07-17T10:58:43;100363.09;;;33.96
72035;BMP280;59899;43.412;23.216;2022-07-17T11:03:46;100370.53;;;34.12
72035;BMP280;59899;43.412;23.216;2022-07-17T11:11:16;100363.28;;;34.17
72035;BMP280;59899;43.412;23.216;2022-07-17T11:13:42;100356.09;;;34.50
72035;BMP280;59899;43.412;23.216;2022-07-17T11:16:08;100352.19;;;34.72
72035;BMP280;59899;43.412;23.216;2022-07-17T11:18:34;100358.13;;;34.69
72035;BMP280;59899;43.412;23.216;2022-07-17T11:21:01;100347.41;;;34.73
72035;BMP280;59899;43.412;23.216;2022-07-17T11:23:29;100351.28;;;34.60
72035;BMP280;59899;43.412;23.216;2022-07-17T11:26:01;100342.47;;;34.71
72035;BMP280;59899;43.412;23.216;2022-07-17T11:28:33;100351.88;;;34.78
72035;BMP280;59899;43.412;23.216;2022-07-17T11:30:59;100349.44;;;34.72
72035;BMP280;59899;43.412;23.216;2022-07-17T11:33:25;100347.53;;;34.84
72035;BMP280;59899;43.412;23.216;2022-07-17T11:35:51;100347.69;;;34.86
72035;BMP280;59899;43.412;23.216;2022-07-17T11:38:24;100338.84;;;34.69
72035;BMP280;59899;43.412;23.216;2022-07-17T11:40:50;100337.81;;;34.26
72035;BMP280;59899;43.412;23.216;2022-07-17T11:43:15;100345.59;;;34.10
72035;BMP280;59899;43.412;23.216;2022-07-17T11:45:44;100331.41;;;34.14
72035;BMP280;59899;43.412;23.216;2022-07-17T11:48:10;100334.03;;;34.21
72035;BMP280;59899;43.412;23.216;2022-07-17T11:50:35;100334.72;;;34.03
72035;BMP280;59899;43.412;23.216;2022-07-17T11:53:04;100326.81;;;34.26
72035;BMP280;59899;43.412;23.216;2022-07-17T11:55:40;100334.78;;;34.60
72035;BMP280;59899;43.412;23.216;2022-07-17T11:58:06;100321.16;;;34.62
72035;BMP280;59899;43.412;23.216;2022-07-17T12:00:32;100329.13;;;34.87
72035;BMP280;59899;43.412;23.216;2022-07-17T12:03:05;100330.88;;;34.54
72035;BMP280;59899;43.412;23.216;2022-07-17T12:05:36;100328.28;;;34.65
72035;BMP280;59899;43.412;23.216;2022-07-17T12:08:02;100323.75;;;34.60
72035;BMP280;59899;43.412;23.216;2022-07-17T12:10:29;100322.19;;;34.57
72035;BMP280;59899;43.412;23.216;2022-07-17T12:15:45;100319.84;;;34.63
72035;BMP280;59899;43.412;23.216;2022-07-17T12:18:24;100313.03;;;34.45
72035;BMP280;59899;43.412;23.216;2022-07-17T12:20:53;100317.69;;;34.52
72035;BMP280;59899;43.412;23.216;2022-07-17T12:23:28;100325.66;;;34.29
72035;BMP280;59899;43.412;23.216;2022-07-17T12:28:29;100314.88;;;33.95
72035;BMP280;59899;43.412;23.216;2022-07-17T12:30:55;100306.94;;;33.62
72035;BMP280;59899;43.412;23.216;2022-07-17T12:33:21;100306.25;;;33.71
72035;BMP280;59899;43.412;23.216;2022-07-17T12:35:46;100293.38;;;33.74
72035;BMP280;59899;43.412;23.216;2022-07-17T12:38:12;100291.63;;;33.69
72035;BMP280;59899;43.412;23.216;2022-07-17T12:40:37;100304.13;;;33.79
72035;BMP280;59899;43.412;23.216;2022-07-17T12:43:03;100298.75;;;33.81
72035;BMP280;59899;43.412;23.216;2022-07-17T12:45:28;100298.56;;;33.70
72035;BMP280;59899;43.412;23.216;2022-07-17T12:47:54;100301.00;;;33.66
72035;BMP280;59899;43.412;23.216;2022-07-17T12:50:19;100296.88;;;33.84
72035;BMP280;59899;43.412;23.216;2022-07-17T12:52:44;100290.38;;;33.79
72035;BMP280;59899;43.412;23.216;2022-07-17T12:55:10;100288.69;;;33.57
72035;BMP280;59899;43.412;23.216;2022-07-17T12:57:36;100283.94;;;33.67
72035;BMP280;59899;43.412;23.216;2022-07-17T13:00:03;100296.75;;;33.82
72035;BMP280;59899;43.412;23.216;2022-07-17T13:02:28;100288.56;;;33.65
72035;BMP280;59899;43.412;23.216;2022-07-17T13:04:54;100284.41;;;33.37
72035;BMP280;59899;43.412;23.216;2022-07-17T13:07:19;100286.53;;;33.29
72035;BMP280;59899;43.412;23.216;2022-07-17T13:09:44;100280.59;;;33.23
72035;BMP280;59899;43.412;23.216;2022-07-17T13:12:10;100272.59;;;33.17
72035;BMP280;59899;43.412;23.216;2022-07-17T13:14:36;100292.81;;;33.12
72035;BMP280;59899;43.412;23.216;2022-07-17T13:17:01;100283.22;;;33.04
72035;BMP280;59899;43.412;23.216;2022-07-17T13:19:27;100283.63;;;33.00
72035;BMP280;59899;43.412;23.216;2022-07-17T13:21:53;100279.38;;;33.16
72035;BMP280;59899;43.412;23.216;2022-07-17T13:24:18;100278.59;;;33.06
72035;BMP280;59899;43.412;23.216;2022-07-17T13:26:44;100282.84;;;33.17
72035;BMP280;59899;43.412;23.216;2022-07-17T13:29:09;100276.25;;;33.03
72035;BMP280;59899;43.412;23.216;2022-07-17T13:31:34;100278.47;;;33.14
72035;BMP280;59899;43.412;23.216;2022-07-17T13:34:02;100275.59;;;33.12
72035;BMP280;59899;43.412;23.216;2022-07-17T13:36:27;100262.53;;;33.03
72035;BMP280;59899;43.412;23.216;2022-07-17T13:38:52;100270.59;;;33.01
72035;BMP280;59899;43.412;23.216;2022-07-17T13:41:18;100271.53;;;32.86
72035;BMP280;59899;43.412;23.216;2022-07-17T13:43:43;100276.84;;;33.01
72035;BMP280;59899;43.412;23.216;2022-07-17T13:46:09;100271.97;;;33.09
72035;BMP280;59899;43.412;23.216;2022-07-17T13:48:34;100260.56;;;33.13
72035;BMP280;59899;43.412;23.216;2022-07-17T13:50:59;100267.19;;;33.10
72035;BMP280;59899;43.412;23.216;2022-07-17T13:53:25;100263.72;;;33.09
72035;BMP280;59899;43.412;23.216;2022-07-17T13:55:50;100268.97;;;33.15
72035;BMP280;59899;43.412;23.216;2022-07-17T13:58:16;100278.19;;;32.93
72035;BMP280;59899;43.412;23.216;2022-07-17T14:00:41;100265.66;;;32.99
72035;BMP280;59899;43.412;23.216;2022-07-17T14:03:07;100258.50;;;33.04